Time;durP1;ratioP1;P1;durP2;ratioP2;P2;SDS_P1;SDS_P2;PMS_P1;PMS_P2;Temp;Humidity;BMP_temperature;BMP_pressure;BME280_temperature;BME280_humidity;BME280_pressure;Samples;Min_cycle;Max_cycle;Signal;HPM_P1;HPM_P2
2022/08/10 00:01:57;;;;;;;2.03;1.40;;;;;;;13.75;78.65;98479.44;7616568;23;20216;-69
2022/08/10 00:04:59;;;;;;;3.07;1.60;;;;;;;13.70;78.79;98476.28;7589553;23;20208;-68
2022/08/10 00:08:01;;;;;;;3.77;1.40;;;;;;;13.63;78.94;98474.13;7593098;23;20208;-69
2022/08/10 00:11:03;;;;;;;2.67;1.40;;;;;;;13.59;79.28;98475.34;7617341;23;20212;-69
2022/08/10 00:14:17;;;;;;;2.13;1.37;;;;;;;13.56;79.76;98469.44;7590765;23;20213;-69
2022/08/10 00:17:19;;;;;;;2.07;1.40;;;;;;;13.51;79.80;98468.97;7591514;23;20212;-69
2022/08/10 00:20:21;;;;;;;2.70;1.20;;;;;;;13.51;79.92;98463.66;7616406;23;20547;-69
2022/08/10 00:23:23;;;;;;;1.80;1.33;;;;;;;13.49;80.05;98469.06;7591787;23;20555;-69
2022/08/10 00:26:24;;;;;;;1.80;1.40;;;;;;;13.45;80.18;98472.97;7618018;23;20679;-69
2022/08/10 00:29:46;;;;;;;3.50;1.80;;;;;;;13.43;80.50;98466.09;7596124;23;20209;-69
2022/08/10 00:32:48;;;;;;;1.97;1.50;;;;;;;13.43;80.04;98458.97;7621899;23;20549;-69
2022/08/10 00:35:50;;;;;;;1.80;1.27;;;;;;;13.45;80.31;98466.81;7621446;23;20736;-69
2022/08/10 00:38:52;;;;;;;2.13;1.30;;;;;;;13.44;80.42;98462.47;7616530;23;20228;-69
2022/08/10 00:41:56;;;;;;;2.20;1.40;;;;;;;13.43;80.65;98466.09;7616031;23;20607;-69
2022/08/10 00:45:09;;;;;;;3.70;1.60;;;;;;;13.37;80.75;98466.56;7615872;23;20204;-69
2022/08/10 00:48:11;;;;;;;2.87;1.33;;;;;;;13.33;80.86;98465.97;7590642;23;20187;-69
2022/08/10 00:51:13;;;;;;;2.07;1.43;;;;;;;13.30;80.84;98471.50;7615839;23;20185;-69
2022/08/10 00:54:16;;;;;;;1.37;1.20;;;;;;;13.25;80.87;98466.56;7615716;23;20295;-69
2022/08/10 00:57:25;;;;;;;1.77;1.13;;;;;;;13.18;81.07;98470.66;7616078;23;20545;-69
2022/08/10 01:05:06;;;;;;;2.97;1.50;;;;;;;13.08;81.68;98467.00;7615562;23;20208;-69
2022/08/10 01:08:13;;;;;;;1.93;1.67;;;;;;;13.02;81.84;98464.84;7616721;23;20256;-69
2022/08/10 01:11:25;;;;;;;1.50;1.40;;;;;;;12.99;82.03;98467.72;7617074;23;20291;-69
2022/08/10 01:15:12;;;;;;;2.53;1.47;;;;;;;12.95;82.08;98453.03;7615903;23;20212;-70
2022/08/10 01:18:25;;;;;;;2.40;1.47;;;;;;;12.91;82.67;98456.88;7614726;23;20275;-69
2022/08/10 01:21:29;;;;;;;3.83;1.70;;;;;;;12.87;82.48;98453.63;7590348;23;20228;-69
2022/08/10 01:24:43;;;;;;;3.80;1.67;;;;;;;12.85;83.03;98465.31;7616390;23;20638;-69
2022/08/10 01:28:24;;;;;;;1.60;1.50;;;;;;;12.78;82.96;98456.13;7614939;23;20659;-69
2022/08/10 01:31:32;;;;;;;2.87;1.63;;;;;;;12.75;83.17;98456.38;7615888;23;20617;-69
2022/08/10 01:35:03;;;;;;;2.10;1.60;;;;;;;12.72;83.04;98451.31;7614827;23;20212;-69
2022/08/10 01:38:13;;;;;;;2.23;1.50;;;;;;;12.67;83.52;98450.81;7614849;23;20552;-69
2022/08/10 01:41:22;;;;;;;2.50;1.50;;;;;;;12.61;83.91;98443.34;7590388;23;20542;-69
2022/08/10 01:44:35;;;;;;;4.67;1.67;;;;;;;12.58;84.08;98436.47;7616907;23;20232;-69
2022/08/10 01:51:16;;;;;;;2.77;1.50;;;;;;;12.61;83.81;98444.19;7616251;23;20529;-69
2022/08/10 01:54:21;;;;;;;4.00;1.60;;;;;;;12.63;83.84;98458.16;7616408;23;20527;-69
2022/08/10 01:57:27;;;;;;;2.00;1.20;;;;;;;12.62;83.38;98461.75;7590067;23;20216;-69
2022/08/10 02:00:34;;;;;;;2.17;1.40;;;;;;;12.61;83.37;98470.66;7616047;23;20554;-69
2022/08/10 02:03:38;;;;;;;2.47;2.00;;;;;;;12.62;83.56;98472.34;7614946;23;20576;-69
2022/08/10 02:07:01;;;;;;;3.47;1.60;;;;;;;12.55;83.63;98469.34;7590156;23;20213;-69
2022/08/10 02:10:08;;;;;;;1.60;1.50;;;;;;;12.44;84.21;98466.66;7565542;23;20541;-70
2022/08/10 02:13:13;;;;;;;1.80;1.43;;;;;;;12.39;84.16;98473.22;7614860;23;20314;-70
2022/08/10 02:16:22;;;;;;;3.70;1.70;;;;;;;12.40;84.69;98475.78;7589183;23;20595;-70
2022/08/10 02:19:27;;;;;;;1.73;1.60;;;;;;;12.40;84.61;98469.63;7589482;23;20280;-69
2022/08/10 02:22:30;;;;;;;1.90;1.50;;;;;;;12.36;84.71;98476.13;7615480;23;20247;-70
2022/08/10 02:25:41;;;;;;;1.93;1.30;;;;;;;12.36;84.83;98474.31;7614358;23;20221;-69
2022/08/10 02:28:45;;;;;;;2.13;1.60;;;;;;;12.31;84.62;98471.16;7588356;23;20223;-69
2022/08/10 02:31:47;;;;;;;2.37;1.60;;;;;;;12.28;84.42;98476.69;7590164;23;20211;-69
2022/08/10 02:34:54;;;;;;;2.00;1.80;;;;;;;12.29;84.49;98473.06;7620415;23;20692;-69
2022/08/10 02:38:03;;;;;;;2.00;1.63;;;;;;;12.28;84.33;98476.69;7615385;23;20684;-69
2022/08/10 02:41:19;;;;;;;2.60;1.47;;;;;;;12.26;84.77;98488.34;7613750;23;20679;-69
2022/08/10 02:44:56;;;;;;;2.00;1.80;;;;;;;12.18;84.93;98488.91;7615408;23;20212;-69
2022/08/10 02:48:23;;;;;;;2.93;1.70;;;;;;;12.09;85.08;98489.59;7613451;23;20220;-69
2022/08/10 02:51:45;;;;;;;2.07;1.60;;;;;;;11.97;85.17;98488.72;7614967;23;20668;-69
2022/08/10 02:55:29;;;;;;;1.90;1.40;;;;;;;11.83;85.33;98487.06;7614354;23;20303;-69
2022/08/10 02:58:43;;;;;;;3.97;1.67;;;;;;;11.80;85.66;98491.72;7590517;23;20680;-69
2022/08/10 03:01:49;;;;;;;1.70;1.37;;;;;;;11.81;85.78;98488.13;7615556;23;20616;-69
2022/08/10 03:04:55;;;;;;;1.60;1.50;;;;;;;11.82;85.45;98493.28;7614583;23;20212;-69
2022/08/10 03:08:05;;;;;;;2.30;1.60;;;;;;;11.81;85.71;98488.13;7614979;23;20226;-69
2022/08/10 03:11:15;;;;;;;1.83;1.70;;;;;;;11.78;85.74;98485.69;7618568;23;20747;-69
2022/08/10 03:14:38;;;;;;;3.60;1.50;;;;;;;11.79;85.98;98488.22;7614774;23;20250;-69
2022/08/10 03:17:41;;;;;;;2.33;1.60;;;;;;;11.82;85.78;98489.81;7614073;23;20272;-69
2022/08/10 03:20:59;;;;;;;2.97;1.80;;;;;;;11.84;85.79;98490.53;7567661;23;20713;-69
2022/08/10 03:24:04;;;;;;;2.27;1.83;;;;;;;11.83;85.69;98500.28;7613638;23;20235;-69
2022/08/10 03:27:28;;;;;;;2.17;1.70;;;;;;;11.77;85.71;98495.44;7614659;23;20254;-69
2022/08/10 03:30:31;;;;;;;1.90;1.43;;;;;;;11.77;85.86;98497.25;7614441;23;20279;-69
2022/08/10 03:33:39;;;;;;;2.83;2.00;;;;;;;11.75;85.91;98504.44;7614529;23;20216;-69
2022/08/10 03:36:42;;;;;;;3.13;2.10;;;;;;;11.67;86.33;98507.59;7614985;23;20287;-69
2022/08/10 03:39:45;;;;;;;2.20;1.80;;;;;;;11.64;86.16;98501.69;7612473;23;20515;-69
2022/08/10 03:42:49;;;;;;;2.47;1.93;;;;;;;11.61;86.37;98505.38;7614895;23;20798;-69
2022/08/10 03:45:56;;;;;;;3.13;2.00;;;;;;;11.56;86.68;98512.81;7589112;23;20601;-69
2022/08/10 03:49:01;;;;;;;2.13;1.63;;;;;;;11.53;86.58;98509.53;7614527;23;20667;-69
2022/08/10 03:52:07;;;;;;;1.87;1.73;;;;;;;11.56;86.92;98509.31;7615286;23;20285;-69
2022/08/10 03:55:11;;;;;;;1.70;1.60;;;;;;;11.60;86.80;98508.97;7589033;23;20241;-69
2022/08/10 03:58:33;;;;;;;2.40;1.90;;;;;;;11.62;86.98;98512.34;7625029;23;20334;-69
2022/08/10 04:01:49;;;;;;;1.87;1.77;;;;;;;11.66;86.72;98515.63;7621514;23;20223;-69
2022/08/10 04:05:15;;;;;;;2.03;1.83;;;;;;;11.64;87.18;98512.25;7616163;23;20354;-70
2022/08/10 04:08:17;;;;;;;3.37;2.20;;;;;;;11.71;86.82;98516.13;7591007;23;20216;-69
2022/08/10 04:11:19;;;;;;;1.93;1.50;;;;;;;11.72;86.66;98518.69;7616022;23;20215;-69
2022/08/10 04:14:21;;;;;;;3.47;1.93;;;;;;;11.71;86.80;98519.63;7616378;23;20340;-69
2022/08/10 04:17:43;;;;;;;2.40;2.10;;;;;;;11.72;86.69;98523.97;7620692;23;20219;-69
2022/08/10 04:21:14;;;;;;;2.20;2.00;;;;;;;11.72;86.77;98523.13;7591146;23;20647;-69
2022/08/10 04:24:20;;;;;;;2.13;1.70;;;;;;;11.74;86.78;98521.22;7615763;23;20538;-70
2022/08/10 04:27:32;;;;;;;1.90;1.73;;;;;;;11.74;86.92;98527.34;7591105;23;20219;-70
2022/08/10 04:30:35;;;;;;;2.23;1.80;;;;;;;11.71;87.05;98530.22;7615708;23;20534;-70
2022/08/10 04:33:40;;;;;;;2.60;1.63;;;;;;;11.76;86.90;98530.78;7615279;23;20679;-70
2022/08/10 04:36:43;;;;;;;1.90;1.80;;;;;;;11.79;87.07;98530.53;7590717;23;20311;-69
2022/08/10 04:39:46;;;;;;;4.80;1.70;;;;;;;11.88;86.73;98528.22;7615973;23;20207;-70
2022/08/10 04:42:48;;;;;;;3.13;1.60;;;;;;;11.91;86.50;98536.75;7565312;23;20592;-69
2022/08/10 04:45:50;;;;;;;2.90;2.03;;;;;;;11.89;86.50;98532.50;7615306;23;20671;-70
2022/08/10 04:48:52;;;;;;;2.23;1.73;;;;;;;11.86;86.83;98538.88;7589283;23;20500;-69
2022/08/10 04:52:03;;;;;;;3.97;1.90;;;;;;;11.86;87.01;98532.75;7615617;23;20212;-70
2022/08/10 04:55:05;;;;;;;3.13;1.80;;;;;;;11.89;86.88;98540.44;7615417;23;20300;-69
2022/08/10 04:58:07;;;;;;;2.23;1.67;;;;;;;11.91;86.94;98530.59;7615911;23;20551;-70
2022/08/10 05:01:09;;;;;;;3.57;2.07;;;;;;;11.96;86.58;98537.28;7614942;23;20688;-69
2022/08/10 05:04:11;;;;;;;3.03;2.13;;;;;;;12.00;86.97;98540.53;7614282;23;20298;-70
2022/08/10 05:07:33;;;;;;;2.10;1.90;;;;;;;12.06;86.64;98537.44;7587936;23;20213;-70
2022/08/10 05:10:56;;;;;;;2.87;2.23;;;;;;;12.11;86.81;98535.31;7594719;23;20215;-70
2022/08/10 05:13:58;;;;;;;2.50;1.90;;;;;;;12.19;86.87;98543.53;7616168;23;20556;-70
2022/08/10 05:17:00;;;;;;;2.37;2.03;;;;;;;12.26;86.64;98536.00;7615425;23;20213;-70
2022/08/10 05:20:03;;;;;;;3.40;2.07;;;;;;;12.30;86.28;98546.22;7615528;23;20320;-70
2022/08/10 05:23:08;;;;;;;2.17;1.73;;;;;;;12.34;86.36;98545.06;7592317;23;20671;-70
2022/08/10 05:26:10;;;;;;;2.17;1.97;;;;;;;12.43;86.40;98538.25;7615161;23;20321;-70
2022/08/10 05:29:12;;;;;;;2.57;2.13;;;;;;;12.53;86.42;98539.25;7616181;23;20216;-70
2022/08/10 05:32:14;;;;;;;2.63;2.07;;;;;;;12.61;86.72;98536.88;7616240;23;20207;-70
2022/08/10 05:35:17;;;;;;;2.70;2.00;;;;;;;12.68;86.65;98526.66;7616444;23;20230;-70
2022/08/10 05:38:21;;;;;;;2.63;1.90;;;;;;;12.72;86.21;98538.72;7589826;23;20218;-70
2022/08/10 05:41:26;;;;;;;3.40;2.03;;;;;;;12.75;86.19;98538.50;7567876;23;20673;-70
2022/08/10 05:44:29;;;;;;;2.47;1.80;;;;;;;12.75;86.51;98543.78;7590702;23;20735;-70
2022/08/10 05:47:31;;;;;;;2.83;2.27;;;;;;;12.82;86.78;98540.53;7616193;23;20216;-70
2022/08/10 05:50:53;;;;;;;3.57;2.20;;;;;;;12.87;86.51;98533.13;7616759;23;20216;-69
2022/08/10 05:53:56;;;;;;;2.90;2.20;;;;;;;12.96;87.13;98536.88;7589013;23;20673;-70
2022/08/10 05:57:06;;;;;;;3.93;2.20;;;;;;;13.06;86.66;98529.06;7590540;23;20200;-70
2022/08/10 06:00:10;;;;;;;2.97;2.23;;;;;;;13.15;86.79;98538.97;7614557;23;20284;-70
2022/08/10 06:03:36;;;;;;;2.73;2.50;;;;;;;13.24;86.81;98528.50;7615566;23;20220;-70
2022/08/10 06:06:42;;;;;;;3.90;2.40;;;;;;;13.33;87.17;98537.56;7621091;23;20701;-70
2022/08/10 06:09:46;;;;;;;2.37;2.17;;;;;;;13.39;86.80;98536.22;7614660;23;20965;-70
2022/08/10 06:16:37;;;;;;;4.37;2.40;;;;;;;13.60;86.97;98538.03;7615713;23;20212;-71
2022/08/10 06:19:42;;;;;;;2.97;2.00;;;;;;;13.72;86.78;98541.53;7590552;23;20679;-70
2022/08/10 06:22:44;;;;;;;2.77;2.10;;;;;;;13.90;86.19;98531.25;7588647;23;20683;-71
2022/08/10 06:25:46;;;;;;;3.77;2.33;;;;;;;14.01;86.14;98534.72;7616045;23;20208;-70
2022/08/10 06:29:12;;;;;;;4.37;2.43;;;;;;;14.15;85.78;98532.78;7614822;23;20291;-71
2022/08/10 06:32:16;;;;;;;3.20;2.23;;;;;;;14.30;85.88;98537.69;7588071;23;20287;-69
2022/08/10 06:35:19;;;;;;;2.90;2.20;;;;;;;14.46;85.00;98536.47;7588275;23;20681;-69
2022/08/10 06:38:23;;;;;;;3.80;2.63;;;;;;;14.58;84.79;98538.09;7614932;23;20262;-69
2022/08/10 06:41:31;;;;;;;2.43;2.10;;;;;;;14.73;84.29;98529.69;7589327;23;20220;-70
2022/08/10 06:45:06;;;;;;;2.43;2.10;;;;;;;14.91;83.68;98539.75;7593061;23;20227;-70
2022/08/10 06:48:34;;;;;;;4.47;1.90;;;;;;;15.16;81.83;98542.03;7587859;23;20215;-71
2022/08/10 06:51:39;;;;;;;3.60;1.87;;;;;;;15.41;81.19;98541.59;7588289;23;20212;-71
2022/08/10 06:54:42;;;;;;;2.70;2.20;;;;;;;15.65;80.25;98537.81;7614401;23;20710;-70
2022/08/10 06:57:47;;;;;;;4.03;2.07;;;;;;;15.90;78.58;98537.34;7588654;23;20220;-69
2022/08/10 07:01:06;;;;;;;2.33;2.07;;;;;;;16.21;77.43;98540.78;7614375;23;20232;-70
2022/08/10 07:04:12;;;;;;;2.33;1.73;;;;;;;16.61;74.69;98538.03;7614261;23;20223;-70
2022/08/10 07:07:18;;;;;;;3.03;1.83;;;;;;;17.03;72.10;98541.28;7616018;23;20703;-70
2022/08/10 07:10:24;;;;;;;2.43;1.60;;;;;;;17.58;69.55;98541.41;7614003;23;20217;-70
2022/08/10 07:13:43;;;;;;;1.83;1.63;;;;;;;18.15;67.70;98536.81;7614858;23;20553;-70
2022/08/10 07:17:09;;;;;;;3.27;1.97;;;;;;;18.57;65.62;98542.41;7588716;23;20623;-69
2022/08/10 07:20:19;;;;;;;3.23;1.47;;;;;;;18.72;63.77;98532.91;7621892;23;20669;-70
2022/08/10 07:23:23;;;;;;;1.90;1.67;;;;;;;18.89;63.04;98525.88;7613517;23;20744;-71
2022/08/10 07:26:49;;;;;;;2.10;1.53;;;;;;;19.42;60.97;98523.06;7595698;23;20672;-70
2022/08/10 07:29:53;;;;;;;3.50;1.47;;;;;;;19.92;58.97;98520.53;7566573;23;20295;-71
2022/08/10 07:32:57;;;;;;;1.50;1.40;;;;;;;20.29;58.16;98512.09;7590877;23;20593;-69
2022/08/10 07:36:01;;;;;;;2.37;1.40;;;;;;;20.57;57.97;98526.06;7591707;23;20789;-70
2022/08/10 07:39:04;;;;;;;1.97;1.60;;;;;;;21.06;56.17;98521.59;7616352;23;20211;-70
2022/08/10 07:42:10;;;;;;;3.93;1.50;;;;;;;21.52;55.13;98521.88;7617251;23;20641;-70
2022/08/10 07:45:12;;;;;;;1.73;1.63;;;;;;;21.94;54.11;98519.72;7589859;23;20676;-70
2022/08/10 07:48:17;;;;;;;4.33;1.60;;;;;;;22.14;52.38;98520.19;7617072;23;20508;-70
2022/08/10 07:51:21;;;;;;;2.13;1.67;;;;;;;22.11;50.15;98517.00;7589124;23;20177;-70
2022/08/10 07:54:26;;;;;;;3.33;1.50;;;;;;;22.34;49.58;98516.03;7615783;23;20599;-70
2022/08/10 07:57:31;;;;;;;3.33;1.63;;;;;;;22.72;47.85;98511.56;7566675;23;20228;-70
2022/08/10 08:00:42;;;;;;;2.27;1.37;;;;;;;23.27;47.77;98515.81;7616684;23;20209;-70
2022/08/10 08:03:47;;;;;;;1.50;1.40;;;;;;;23.61;48.62;98515.34;7567303;23;20213;-70
2022/08/10 08:07:11;;;;;;;3.30;1.30;;;;;;;24.01;47.51;98514.03;7615305;23;20684;-70
2022/08/10 08:10:16;;;;;;;3.17;1.43;;;;;;;24.30;47.34;98510.47;7617588;23;20668;-70
2022/08/10 08:13:22;;;;;;;3.50;1.90;;;;;;;24.18;44.29;98509.25;7616205;23;20213;-71
2022/08/10 08:16:25;;;;;;;1.60;1.47;;;;;;;24.09;44.46;98503.13;7591041;23;20283;-70
2022/08/10 08:19:28;;;;;;;4.57;1.60;;;;;;;24.49;44.31;98507.16;7590854;23;20606;-70
2022/08/10 08:22:48;;;;;;;3.23;1.60;;;;;;;24.99;43.80;98511.63;7590051;23;20212;-70
2022/08/10 08:26:11;;;;;;;2.43;1.77;;;;;;;25.06;44.21;98514.38;7615608;23;20930;-70
2022/08/10 08:29:18;;;;;;;1.60;1.50;;;;;;;25.29;43.71;98508.75;7616376;23;20592;-70
2022/08/10 08:32:25;;;;;;;3.03;1.60;;;;;;;25.20;42.27;98499.97;7616180;23;20676;-70
2022/08/10 08:35:29;;;;;;;2.57;1.67;;;;;;;25.72;42.81;98504.94;7615847;23;20212;-70
2022/08/10 08:38:32;;;;;;;1.63;1.50;;;;;;;26.03;42.02;98496.34;7616042;23;20298;-70
2022/08/10 08:41:57;;;;;;;3.77;1.67;;;;;;;26.25;38.31;98502.47;7591055;23;20217;-71
2022/08/10 08:45:21;;;;;;;3.05;1.40;;;;;;;25.77;38.80;98507.03;7616659;23;20223;-70
2022/08/10 08:48:28;;;;;;;2.65;1.67;;;;;;;26.28;38.61;98496.66;7589987;23;20278;-70
2022/08/10 08:51:39;;;;;;;3.22;1.73;;;;;;;26.60;37.07;98503.22;7615288;23;20208;-71
2022/08/10 08:55:10;;;;;;;1.65;1.35;;;;;;;26.46;38.35;98496.94;7593844;23;20213;-70
2022/08/10 08:59:21;;;;;;;2.80;1.27;;;;;;;26.88;34.87;98484.09;7588459;23;20695;-70
2022/08/10 09:02:51;;;;;;;2.95;1.73;;;;;;;26.90;34.26;98498.25;7614404;23;20519;-71
2022/08/10 09:06:23;;;;;;;2.38;1.45;;;;;;;26.93;34.30;98502.47;7615919;23;20221;-71
2022/08/10 09:09:57;;;;;;;3.20;1.65;;;;;;;26.59;33.03;98501.53;7591287;23;20218;-71
2022/08/10 09:13:07;;;;;;;3.03;1.80;;;;;;;26.94;32.54;98493.31;7604117;23;20665;-71
2022/08/10 09:19:50;;;;;;;2.42;1.63;;;;;;;27.10;33.77;98488.31;7621635;23;20188;-71
2022/08/10 09:23:00;;;;;;;6.95;1.80;;;;;;;27.46;33.03;98490.56;7615303;23;20204;-72
2022/08/10 09:26:44;;;;;;;2.72;1.67;;;;;;;27.36;34.09;98492.84;7616060;23;20547;-70
2022/08/10 09:29:55;;;;;;;2.47;1.83;;;;;;;27.83;31.05;98489.06;7479957;23;20219;-71
2022/08/10 09:33:07;;;;;;;2.05;1.15;;;;;;;27.98;31.54;98483.34;7502638;23;20691;-71
2022/08/10 09:36:49;;;;;;;3.55;1.67;;;;;;;27.97;31.26;98478.13;7503995;23;20210;-70
2022/08/10 09:39:57;;;;;;;2.65;1.30;;;;;;;28.59;32.09;98474.72;7503522;23;20235;-69
2022/08/10 09:43:49;;;;;;;4.32;1.67;;;;;;;28.61;29.63;98476.19;7503305;23;20238;-72
2022/08/10 09:47:12;;;;;;;3.53;1.77;;;;;;;28.62;29.77;98477.84;7504668;23;20730;-71
2022/08/10 09:50:19;;;;;;;2.53;1.67;;;;;;;28.41;30.02;98475.47;7503117;23;20215;-71
2022/08/10 09:53:47;;;;;;;2.10;1.52;;;;;;;28.59;30.43;98469.28;7481634;23;20214;-71
2022/08/10 09:57:11;;;;;;;4.97;1.95;;;;;;;28.27;29.37;98463.84;7502015;23;20323;-71
2022/08/10 10:00:44;;;;;;;2.20;1.83;;;;;;;28.45;30.18;98465.00;7502856;23;20210;-71
2022/08/10 10:04:09;;;;;;;5.68;1.55;;;;;;;28.31;30.82;98468.84;7515210;23;20218;-71
2022/08/10 10:07:22;;;;;;;2.55;1.48;;;;;;;28.03;30.68;98456.41;7589504;23;20215;-71
2022/08/10 10:10:43;;;;;;;1.95;1.75;;;;;;;27.83;32.48;98455.66;7614792;23;20212;-71
2022/08/10 10:14:07;;;;;;;4.55;2.10;;;;;;;28.69;29.95;98447.06;7616173;23;20567;-71
2022/08/10 10:17:22;;;;;;;3.15;1.52;;;;;;;28.54;28.59;98448.25;7589869;23;20284;-72
2022/08/10 10:20:52;;;;;;;2.80;1.40;;;;;;;28.99;29.69;98450.84;7588784;23;20224;-71
2022/08/10 10:24:17;;;;;;;2.38;1.58;;;;;;;29.29;26.96;98438.22;7588945;23;20593;-71
2022/08/10 10:27:26;;;;;;;1.50;1.40;;;;;;;29.77;28.65;98436.69;7613693;23;20595;-71
2022/08/10 10:30:37;;;;;;;3.03;1.45;;;;;;;30.38;27.42;98433.81;7615967;23;20232;-69
2022/08/10 10:34:02;;;;;;;1.85;1.67;;;;;;;30.75;26.37;98419.03;7614511;23;20433;-69
2022/08/10 10:37:06;;;;;;;1.98;1.60;;;;;;;30.41;25.85;98425.19;7613485;23;20209;-70
2022/08/10 10:40:09;;;;;;;2.85;1.42;;;;;;;30.93;25.27;98420.00;7614986;23;20219;-70
2022/08/10 10:43:42;;;;;;;4.30;1.85;;;;;;;30.84;27.24;98415.97;7587510;23;20232;-70
2022/08/10 10:47:03;;;;;;;1.52;1.33;;;;;;;30.67;23.60;98421.25;7589014;23;20539;-69
2022/08/10 10:50:12;;;;;;;1.60;1.40;;;;;;;30.11;24.57;98410.75;7589533;23;20212;-70
2022/08/10 10:53:17;;;;;;;1.83;1.45;;;;;;;30.77;25.10;98400.53;7614184;23;20208;-70
2022/08/10 10:56:38;;;;;;;3.25;1.50;;;;;;;31.32;24.15;98413.88;7613614;23;20688;-70
2022/08/10 11:00:03;;;;;;;1.50;1.40;;;;;;;31.01;23.64;98409.59;7612818;23;20247;-71
2022/08/10 11:03:22;;;;;;;1.95;1.40;;;;;;;30.99;25.12;98414.44;7587426;23;20177;-69
2022/08/10 11:07:01;;;;;;;1.83;1.50;;;;;;;30.57;25.25;98405.47;7613152;23;20586;-69
2022/08/10 11:10:09;;;;;;;1.85;1.40;;;;;;;29.89;24.67;98403.03;7613893;23;20208;-70
2022/08/10 11:13:41;;;;;;;2.55;1.40;;;;;;;29.91;25.17;98411.81;7588943;23;20240;-70
2022/08/10 11:17:29;;;;;;;2.92;1.73;;;;;;;29.80;26.60;98398.13;7593946;23;20216;-70
2022/08/10 11:21:07;;;;;;;2.15;1.35;;;;;;;30.76;24.33;98396.16;7613628;23;20212;-70
2022/08/10 11:24:35;;;;;;;3.78;1.73;;;;;;;30.92;23.92;98397.38;7588099;23;20209;-69
2022/08/10 11:28:11;;;;;;;2.30;1.80;;;;;;;30.62;25.21;98404.78;7614384;23;20212;-71
2022/08/10 11:31:35;;;;;;;2.17;1.42;;;;;;;29.52;26.16;98406.84;7588751;23;20571;-70
2022/08/10 11:35:06;;;;;;;2.65;1.63;;;;;;;29.51;25.76;98397.84;7615231;23;20668;-70
2022/08/10 11:38:26;;;;;;;2.05;1.50;;;;;;;30.81;23.98;98399.03;7614460;23;20316;-71
2022/08/10 11:41:44;;;;;;;2.90;1.60;;;;;;;31.19;23.64;98392.28;7592040;23;20699;-70
2022/08/10 11:45:30;;;;;;;2.28;1.50;;;;;;;31.04;23.34;98400.94;7612334;23;20287;-70
2022/08/10 11:48:42;;;;;;;3.38;1.75;;;;;;;30.97;24.12;98393.91;7621624;23;20220;-69
2022/08/10 11:52:27;;;;;;;1.70;1.42;;;;;;;30.02;24.17;98388.47;7613577;23;20223;-69
2022/08/10 11:55:32;;;;;;;2.70;1.70;;;;;;;30.69;24.80;98381.81;7564906;23;20218;-70
2022/08/10 12:02:01;;;;;;;2.13;1.52;;;;;;;29.47;26.00;98398.53;7613968;23;20691;-69
2022/08/10 12:05:16;;;;;;;1.65;1.30;;;;;;;29.30;27.30;98392.81;7587290;23;20217;-70
2022/08/10 12:08:20;;;;;;;1.52;1.30;;;;;;;29.77;26.76;98387.69;7588510;23;20774;-69
2022/08/10 12:11:42;;;;;;;1.55;1.17;;;;;;;29.85;26.50;98384.69;7588992;23;20223;-70
2022/08/10 12:15:07;;;;;;;1.92;1.58;;;;;;;30.12;24.21;98382.47;7590258;23;20215;-71
2022/08/10 12:18:18;;;;;;;2.13;1.58;;;;;;;30.72;23.18;98367.72;7615497;23;20220;-69
2022/08/10 12:21:25;;;;;;;4.43;1.70;;;;;;;31.63;23.59;98360.84;7617593;23;20339;-70
2022/08/10 12:24:34;;;;;;;1.90;1.33;;;;;;;32.31;22.54;98360.00;7589898;23;20236;-70
2022/08/10 12:27:45;;;;;;;3.45;1.50;;;;;;;32.75;22.33;98360.19;7615343;23;20212;-69
2022/08/10 12:30:58;;;;;;;4.05;1.50;;;;;;;31.87;22.37;98359.66;7616236;23;20595;-69
2022/08/10 12:34:23;;;;;;;3.00;1.40;;;;;;;30.53;24.70;98360.72;7615610;23;20260;-69
2022/08/10 12:37:40;;;;;;;2.85;1.08;;;;;;;29.19;25.80;98366.38;7589419;23;20279;-70
2022/08/10 12:40:52;;;;;;;1.77;1.38;;;;;;;29.00;26.97;98357.38;7616249;23;20217;-70
2022/08/10 12:44:33;;;;;;;1.75;1.60;;;;;;;29.31;28.31;98354.53;7615890;23;20655;-69
2022/08/10 12:47:55;;;;;;;2.75;1.40;;;;;;;29.85;27.92;98357.47;7615523;23;20694;-69
2022/08/10 12:51:17;;;;;;;2.22;1.60;;;;;;;30.54;25.00;98346.03;7616033;23;20213;-70
2022/08/10 12:54:21;;;;;;;3.33;1.50;;;;;;;30.87;23.39;98334.53;7590601;23;20200;-70
2022/08/10 12:57:35;;;;;;;2.05;1.48;;;;;;;30.05;25.02;98350.69;7589624;23;20661;-70
2022/08/10 13:00:38;;;;;;;3.00;1.40;;;;;;;30.17;25.15;98347.19;7590496;23;20216;-71
2022/08/10 13:04:08;;;;;;;2.00;1.40;;;;;;;31.09;25.26;98338.34;7615083;23;20663;-70
2022/08/10 13:07:29;;;;;;;3.80;1.50;;;;;;;31.48;24.33;98330.44;7615954;23;20208;-69
2022/08/10 13:10:58;;;;;;;2.47;1.40;;;;;;;31.88;23.12;98320.38;7570409;23;20296;-70
2022/08/10 13:14:06;;;;;;;2.38;1.58;;;;;;;32.47;22.56;98329.09;7591240;23;20232;-71
2022/08/10 13:17:10;;;;;;;1.58;1.35;;;;;;;31.86;22.99;98321.69;7615145;23;20769;-70
2022/08/10 13:20:19;;;;;;;1.63;1.48;;;;;;;32.37;22.78;98317.16;7615142;23;20258;-70
2022/08/10 13:23:27;;;;;;;1.33;1.20;;;;;;;32.90;21.93;98314.78;7615847;23;20212;-69
2022/08/10 13:26:34;;;;;;;1.90;1.60;;;;;;;33.64;22.49;98312.50;7590246;23;20220;-70
2022/08/10 13:29:47;;;;;;;2.38;1.55;;;;;;;33.89;20.84;98303.78;7590427;23;20237;-72
2022/08/10 13:32:55;;;;;;;2.72;1.55;;;;;;;33.14;20.89;98312.66;7590171;23;20209;-71
2022/08/10 13:36:01;;;;;;;1.50;1.40;;;;;;;31.08;22.03;98314.03;7614966;23;20678;-71
2022/08/10 13:39:06;;;;;;;1.40;1.30;;;;;;;30.35;23.72;98309.81;7587786;23;20672;-71
2022/08/10 13:42:11;;;;;;;3.65;1.50;;;;;;;31.35;24.00;98307.00;7615711;23;20188;-70
2022/08/10 13:45:19;;;;;;;1.45;1.23;;;;;;;32.91;22.77;98299.19;7590585;23;20200;-71
2022/08/10 13:48:22;;;;;;;5.10;1.60;;;;;;;34.28;21.66;98298.97;7614320;23;20224;-71
2022/08/10 13:51:27;;;;;;;2.58;1.55;;;;;;;35.62;19.75;98294.09;7614255;23;20283;-71
2022/08/10 13:54:52;;;;;;;2.40;1.52;;;;;;;35.54;19.20;98289.94;7615264;23;20213;-70
2022/08/10 13:58:00;;;;;;;1.92;1.73;;;;;;;36.93;17.83;98282.44;7589448;23;20581;-71
2022/08/10 14:01:11;;;;;;;1.67;1.50;;;;;;;37.13;17.83;98285.13;7614958;23;20209;-71
2022/08/10 14:04:13;;;;;;;1.63;1.50;;;;;;;39.13;15.85;98278.03;7615322;23;20220;-71
2022/08/10 14:07:16;;;;;;;1.80;1.40;;;;;;;38.04;16.08;98286.66;7615930;23;20451;-71
2022/08/10 14:10:19;;;;;;;1.83;1.40;;;;;;;35.48;18.74;98280.88;7614227;23;20699;-70
2022/08/10 14:13:52;;;;;;;3.13;1.40;;;;;;;33.01;20.91;98280.19;7612281;23;20217;-70
2022/08/10 14:16:56;;;;;;;1.50;1.40;;;;;;;31.59;23.13;98272.28;7615505;23;20221;-70
2022/08/10 14:19:59;;;;;;;1.55;1.40;;;;;;;36.27;18.34;98271.47;7595241;23;20216;-70
2022/08/10 14:23:06;;;;;;;1.73;1.45;;;;;;;39.89;14.01;98266.88;7616273;23;20218;-70
2022/08/10 14:26:11;;;;;;;7.63;1.90;;;;;;;42.01;12.77;98266.81;7588701;23;20216;-69
2022/08/10 14:29:20;;;;;;;1.25;1.13;;;;;;;43.20;11.89;98269.88;7588519;23;20672;-71
2022/08/10 14:32:26;;;;;;;2.97;1.38;;;;;;;43.40;12.05;98263.75;7615807;23;20748;-71
2022/08/10 14:35:36;;;;;;;2.50;1.52;;;;;;;39.93;14.13;98261.56;7615304;23;20602;-71
2022/08/10 14:39:01;;;;;;;2.42;1.40;;;;;;;35.06;18.46;98258.13;7592318;23;20208;-71
2022/08/10 14:42:06;;;;;;;2.42;1.50;;;;;;;32.98;21.39;98265.13;7588922;23;20196;-70
2022/08/10 14:45:36;;;;;;;1.50;1.40;;;;;;;31.72;23.29;98261.09;7593157;23;20217;-70
2022/08/10 14:48:43;;;;;;;2.28;1.35;;;;;;;31.28;25.87;98254.47;7588576;23;20208;-70
2022/08/10 14:51:48;;;;;;;1.92;1.40;;;;;;;35.94;21.22;98252.72;7615066;23;20213;-70
2022/08/10 14:54:53;;;;;;;1.40;1.25;;;;;;;40.23;16.10;98258.31;7614212;23;20217;-70
2022/08/10 14:57:56;;;;;;;2.35;1.10;;;;;;;42.60;13.80;98250.94;7589709;23;20208;-70
2022/08/10 15:01:20;;;;;;;2.20;1.50;;;;;;;43.59;13.27;98241.22;7597353;23;20212;-71
2022/08/10 15:04:26;;;;;;;1.50;1.40;;;;;;;44.80;11.68;98244.81;7587910;23;20298;-70
2022/08/10 15:07:32;;;;;;;1.45;1.27;;;;;;;43.47;12.04;98254.91;7589560;23;20208;-70
2022/08/10 15:10:36;;;;;;;3.80;1.73;;;;;;;42.78;11.69;98246.31;7614022;23;20274;-71
2022/08/10 15:13:44;;;;;;;3.50;1.50;;;;;;;43.16;12.36;98246.63;7613604;23;20212;-70
2022/08/10 15:17:08;;;;;;;3.63;1.58;;;;;;;41.39;13.71;98238.75;7613832;23;20656;-71
2022/08/10 15:20:17;;;;;;;2.38;1.38;;;;;;;36.49;18.04;98240.94;7613975;23;20217;-70
2022/08/10 15:23:27;;;;;;;2.75;1.30;;;;;;;33.45;21.56;98237.25;7613309;23;20299;-69
2022/08/10 15:26:34;;;;;;;1.67;1.25;;;;;;;31.37;25.60;98231.19;7617635;23;20224;-69